createdAt,value
2022-12-22T00:00:38.544Z,10.70
2022-12-22T00:03:30.840Z,8.73
2022-12-22T00:06:16.497Z,9.83
2022-12-22T00:09:05.933Z,10.40
2022-12-22T00:11:51.449Z,12.73
2022-12-22T00:14:37.043Z,10.53
2022-12-22T00:17:26.517Z,8.03
2022-12-22T00:20:18.158Z,10.77
2022-12-22T00:23:03.775Z,12.43
2022-12-22T00:25:51.200Z,11.00
2022-12-22T00:28:37.639Z,10.03
2022-12-22T00:31:23.540Z,8.00
2022-12-22T00:34:09.104Z,9.17
2022-12-22T00:36:55.660Z,8.20
2022-12-22T00:39:41.387Z,8.67
2022-12-22T00:42:28.462Z,8.80
2022-12-22T00:45:14.003Z,8.43
2022-12-22T00:48:00.958Z,8.23
2022-12-22T00:50:50.941Z,8.73
2022-12-22T00:53:39.587Z,7.73
2022-12-22T00:56:26.902Z,8.63
2022-12-22T00:59:18.183Z,9.77
2022-12-22T01:02:03.658Z,7.60
2022-12-22T01:04:49.717Z,7.67
2022-12-22T01:07:38.229Z,7.83
2022-12-22T01:10:25.020Z,7.77
2022-12-22T01:13:10.422Z,9.70
2022-12-22T01:15:58.206Z,9.90
2022-12-22T01:18:43.601Z,8.37
2022-12-22T01:21:29.969Z,8.57
2022-12-22T01:24:15.800Z,7.97
2022-12-22T01:27:01.177Z,7.30
2022-12-22T01:29:46.575Z,10.63
2022-12-22T01:32:34.107Z,8.17
2022-12-22T01:35:19.376Z,7.63
2022-12-22T01:38:04.704Z,7.23
2022-12-22T01:40:50.740Z,7.63
2022-12-22T01:43:38.916Z,8.03
2022-12-22T01:46:39.505Z,8.50
2022-12-22T01:49:30.587Z,8.93
2022-12-22T01:52:16.587Z,9.33
2022-12-22T01:55:03.026Z,7.70
2022-12-22T01:57:49.995Z,7.23
2022-12-22T02:00:35.874Z,5.83
2022-12-22T02:03:21.804Z,7.97
2022-12-22T02:06:20.795Z,8.23
2022-12-22T02:09:16.542Z,8.20
2022-12-22T02:12:09.144Z,6.83
2022-12-22T02:15:02.499Z,8.00
2022-12-22T02:17:53.717Z,7.47
2022-12-22T02:20:53.983Z,5.87
2022-12-22T02:23:54.081Z,7.00
2022-12-22T02:26:47.908Z,6.13
2022-12-22T02:29:37.838Z,5.60
2022-12-22T02:32:24.753Z,5.87
2022-12-22T02:35:10.000Z,7.87
2022-12-22T02:38:05.755Z,7.60
2022-12-22T02:40:59.316Z,4.80
2022-12-22T02:44:03.146Z,6.40
2022-12-22T02:46:52.973Z,5.83
2022-12-22T02:49:41.965Z,5.87
2022-12-22T02:52:32.883Z,5.30
2022-12-22T02:55:18.760Z,4.87
2022-12-22T02:58:04.262Z,5.23
2022-12-22T03:00:51.349Z,5.67
2022-12-22T03:03:40.056Z,6.20
2022-12-22T03:06:26.014Z,6.57
2022-12-22T03:09:11.299Z,5.13
2022-12-22T03:12:00.227Z,5.10
2022-12-22T03:14:45.743Z,6.87
2022-12-22T03:17:32.713Z,5.67
2022-12-22T03:20:18.012Z,7.03
2022-12-22T03:23:03.600Z,6.37
2022-12-22T03:25:48.883Z,4.10
2022-12-22T03:28:17.058Z,5.20
2022-12-22T03:30:45.215Z,4.90
2022-12-22T03:33:14.743Z,5.47
2022-12-22T03:35:45.180Z,6.77
2022-12-22T03:38:13.153Z,4.23
2022-12-22T03:40:41.799Z,6.67
2022-12-22T03:43:30.319Z,5.57
2022-12-22T03:46:16.411Z,4.07
2022-12-22T03:49:06.903Z,3.70
2022-12-22T03:51:35.998Z,3.13
2022-12-22T03:54:04.532Z,3.77
2022-12-22T03:56:33.050Z,4.83
2022-12-22T03:59:01.408Z,3.13
2022-12-22T04:01:29.947Z,2.37
2022-12-22T04:03:59.574Z,3.53
2022-12-22T04:06:27.867Z,2.30
2022-12-22T04:08:56.192Z,2.63
2022-12-22T04:11:42.860Z,2.47
2022-12-22T04:14:11.733Z,3.70
2022-12-22T04:16:40.106Z,2.87
2022-12-22T04:19:10.531Z,6.00
2022-12-22T04:21:39.882Z,3.60
2022-12-22T04:24:10.612Z,3.27
2022-12-22T04:26:39.320Z,2.73
2022-12-22T04:29:07.901Z,2.57
2022-12-22T04:31:37.174Z,2.87
2022-12-22T04:34:05.587Z,5.90
2022-12-22T04:36:35.472Z,4.77
2022-12-22T04:39:03.853Z,4.70
2022-12-22T04:41:32.399Z,4.70
2022-12-22T04:44:00.839Z,5.40
2022-12-22T04:46:29.391Z,4.93
2022-12-22T04:49:00.254Z,3.00
2022-12-22T04:51:28.868Z,3.67
2022-12-22T04:53:58.804Z,3.27
2022-12-22T04:56:27.174Z,3.67
2022-12-22T04:58:55.239Z,2.80
2022-12-22T05:01:23.709Z,3.10
2022-12-22T05:03:52.067Z,3.23
2022-12-22T05:06:21.025Z,4.43
2022-12-22T05:08:49.111Z,2.50
2022-12-22T05:11:19.081Z,2.30
2022-12-22T05:13:47.558Z,3.80
2022-12-22T05:16:18.552Z,2.93
2022-12-22T05:18:47.561Z,5.27
2022-12-22T05:21:17.760Z,2.70
2022-12-22T05:23:48.941Z,6.17
2022-12-22T05:26:19.945Z,3.77
2022-12-22T05:28:49.067Z,4.10
2022-12-22T05:31:20.066Z,4.27
2022-12-22T05:33:48.728Z,4.20
2022-12-22T05:36:17.054Z,6.00
2022-12-22T05:38:48.254Z,5.80
2022-12-22T05:41:16.326Z,3.47
2022-12-22T05:43:46.107Z,3.40
2022-12-22T05:46:14.694Z,4.33
2022-12-22T05:48:42.836Z,4.40
2022-12-22T05:51:12.258Z,4.20
2022-12-22T05:53:41.058Z,6.17
2022-12-22T05:56:10.673Z,4.27
2022-12-22T05:58:39.873Z,6.47
2022-12-22T06:01:09.711Z,5.33
2022-12-22T06:03:38.240Z,9.53
2022-12-22T06:06:07.287Z,8.03
2022-12-22T06:08:35.624Z,5.43
2022-12-22T06:11:03.920Z,5.20
2022-12-22T06:13:33.240Z,5.30
2022-12-22T06:16:01.230Z,6.03
2022-12-22T06:18:30.794Z,5.23
2022-12-22T06:20:58.798Z,5.50
2022-12-22T06:23:26.818Z,5.60
2022-12-22T06:25:56.378Z,7.93
2022-12-22T06:28:25.056Z,6.53
2022-12-22T06:30:53.640Z,6.73
2022-12-22T06:33:21.769Z,6.27
2022-12-22T06:35:57.974Z,7.40
2022-12-22T06:38:26.601Z,7.57
2022-12-22T06:40:55.322Z,7.03
2022-12-22T06:43:22.277Z,8.00
2022-12-22T06:45:50.236Z,6.63
2022-12-22T06:48:18.608Z,9.53
2022-12-22T06:50:46.764Z,9.30
2022-12-22T06:53:16.509Z,6.87
2022-12-22T06:55:44.611Z,6.90
2022-12-22T06:58:12.704Z,7.90
2022-12-22T07:00:40.779Z,7.83
2022-12-22T07:03:09.043Z,10.23
2022-12-22T07:05:37.313Z,10.17
2022-12-22T07:08:08.928Z,10.03
2022-12-22T07:10:56.404Z,9.53
2022-12-22T07:13:24.840Z,10.10
2022-12-22T07:16:00.172Z,8.23
2022-12-22T07:18:29.865Z,9.23
2022-12-22T07:20:58.215Z,9.13
2022-12-22T07:23:27.017Z,11.13
2022-12-22T07:25:56.617Z,10.10
2022-12-22T07:28:25.206Z,9.57
2022-12-22T07:30:54.070Z,14.17
2022-12-22T07:33:22.554Z,10.87
2022-12-22T07:35:50.990Z,13.57
2022-12-22T07:38:19.361Z,12.07
2022-12-22T07:40:51.870Z,10.73
2022-12-22T07:43:20.901Z,12.13
2022-12-22T07:45:48.981Z,10.30
2022-12-22T07:48:34.390Z,11.50
2022-12-22T07:51:05.501Z,12.30
2022-12-22T07:53:34.963Z,12.63
2022-12-22T07:56:05.085Z,13.07
2022-12-22T07:58:35.067Z,12.93
2022-12-22T08:01:03.387Z,12.93
2022-12-22T08:03:31.934Z,13.10
2022-12-22T08:05:59.855Z,15.03
2022-12-22T08:08:27.918Z,16.47
2022-12-22T08:10:56.301Z,18.13
2022-12-22T08:13:24.676Z,15.43
2022-12-22T08:15:54.283Z,15.63
2022-12-22T08:18:22.359Z,16.23
2022-12-22T08:20:51.504Z,16.40
2022-12-22T08:23:20.186Z,17.60
2022-12-22T08:25:52.330Z,18.67
2022-12-22T08:28:20.593Z,19.70
2022-12-22T08:30:49.348Z,18.57
2022-12-22T08:33:18.915Z,20.57
2022-12-22T08:35:47.549Z,20.10
2022-12-22T08:38:16.184Z,22.73
2022-12-22T08:40:45.436Z,20.73
2022-12-22T08:43:13.868Z,19.67
2022-12-22T08:45:43.305Z,21.33
2022-12-22T08:48:12.018Z,20.77
2022-12-22T08:50:41.455Z,23.10
2022-12-22T08:53:23.720Z,21.13
2022-12-22T08:55:58.340Z,22.17
2022-12-22T08:58:26.482Z,20.57
2022-12-22T09:00:54.794Z,21.13
2022-12-22T09:03:22.927Z,22.13
2022-12-22T09:05:52.479Z,22.03
2022-12-22T09:08:20.650Z,24.87
2022-12-22T09:10:48.689Z,23.43
2022-12-22T09:13:17.719Z,28.43
2022-12-22T09:15:45.905Z,23.37
2022-12-22T09:18:13.983Z,28.87
2022-12-22T09:20:42.113Z,24.03
2022-12-22T09:23:11.628Z,23.57
2022-12-22T09:25:39.907Z,22.23
2022-12-22T09:28:08.794Z,20.73
2022-12-22T09:30:36.900Z,19.30
2022-12-22T09:33:04.912Z,16.47
2022-12-22T09:35:32.945Z,19.37
2022-12-22T09:38:01.058Z,18.13
2022-12-22T09:40:30.538Z,17.37
2022-12-22T09:42:59.617Z,17.43
2022-12-22T09:45:27.591Z,18.87
2022-12-22T09:47:56.738Z,17.10
2022-12-22T09:50:27.360Z,17.57
2022-12-22T09:52:59.911Z,17.10
2022-12-22T09:55:39.878Z,17.27
2022-12-22T09:58:25.777Z,18.00
2022-12-22T10:01:01.697Z,17.83
2022-12-22T10:03:37.216Z,20.20
2022-12-22T10:06:12.247Z,21.87
2022-12-22T10:08:42.009Z,20.90
2022-12-22T10:11:16.830Z,22.70
2022-12-22T10:13:45.663Z,19.97
2022-12-22T10:16:23.249Z,21.53
2022-12-22T10:19:00.536Z,21.57
2022-12-22T10:21:29.985Z,27.40
2022-12-22T10:23:58.031Z,25.20
2022-12-22T10:26:31.836Z,23.37
2022-12-22T10:29:04.843Z,22.70
2022-12-22T10:31:34.263Z,25.97
2022-12-22T10:34:12.946Z,24.00
2022-12-22T10:36:44.023Z,27.03
2022-12-22T10:39:12.344Z,25.63
2022-12-22T10:41:46.188Z,25.50
2022-12-22T10:44:22.541Z,25.50
2022-12-22T10:46:52.480Z,28.40
2022-12-22T10:49:22.941Z,23.43
2022-12-22T10:51:54.129Z,28.20
2022-12-22T10:54:30.630Z,25.80
2022-12-22T10:57:21.819Z,27.70
2022-12-22T10:59:51.739Z,25.30
2022-12-22T11:02:33.250Z,26.37
2022-12-22T11:05:09.837Z,25.70
2022-12-22T11:07:39.887Z,25.33
2022-12-22T11:10:24.372Z,24.83
2022-12-22T11:13:31.000Z,27.73
2022-12-22T11:16:03.809Z,25.47
2022-12-22T11:18:47.883Z,25.63
2022-12-22T11:21:24.641Z,28.67
2022-12-22T11:24:07.084Z,32.33
2022-12-22T11:26:45.076Z,23.90
2022-12-22T11:29:29.574Z,27.73
2022-12-22T11:32:11.932Z,27.43
2022-12-22T11:34:57.036Z,23.30
2022-12-22T11:37:35.082Z,29.10
2022-12-22T11:40:16.046Z,25.10
2022-12-22T11:42:58.559Z,29.50
2022-12-22T11:45:43.339Z,26.50
2022-12-22T11:48:33.179Z,30.70
2022-12-22T11:51:13.318Z,25.60
2022-12-22T11:54:10.353Z,26.07
2022-12-22T11:56:41.924Z,23.60
2022-12-22T11:59:26.770Z,24.17
2022-12-22T12:02:18.286Z,18.63
2022-12-22T12:05:22.096Z,18.63
2022-12-22T12:07:53.855Z,16.93
2022-12-22T12:10:26.476Z,19.97
2022-12-22T12:13:03.453Z,18.83
2022-12-22T12:15:34.187Z,16.70
2022-12-22T12:18:28.519Z,18.23
2022-12-22T12:21:09.425Z,17.57
2022-12-22T12:23:53.162Z,19.00
2022-12-22T12:26:26.134Z,20.03
2022-12-22T12:29:05.418Z,18.17
2022-12-22T12:31:38.558Z,21.43
2022-12-22T12:34:13.841Z,20.17
2022-12-22T12:36:46.285Z,19.13
2022-12-22T12:39:19.973Z,22.23
2022-12-22T12:41:57.522Z,19.70
2022-12-22T12:44:29.805Z,22.00
2022-12-22T12:47:07.344Z,19.70
2022-12-22T12:49:59.626Z,20.27
2022-12-22T12:53:17.823Z,21.40
2022-12-22T12:55:54.909Z,24.00
2022-12-22T12:58:53.065Z,27.07
2022-12-22T13:02:01.723Z,23.70
2022-12-22T13:05:11.771Z,27.20
2022-12-22T13:08:14.594Z,23.90
2022-12-22T13:10:46.929Z,22.23
2022-12-22T13:13:47.258Z,24.63
2022-12-22T13:16:40.014Z,26.73
2022-12-22T13:19:24.586Z,23.30
2022-12-22T13:21:57.823Z,23.03
2022-12-22T13:24:31.228Z,20.87
2022-12-22T13:27:06.958Z,21.87
2022-12-22T13:29:45.085Z,17.20
2022-12-22T13:32:22.978Z,21.03
2022-12-22T13:35:29.814Z,18.87
2022-12-22T13:37:49.204Z,15.17
2022-12-22T13:40:22.459Z,17.63
2022-12-22T13:42:52.899Z,14.63
2022-12-22T13:45:37.297Z,19.07
2022-12-22T13:48:11.771Z,15.20
2022-12-22T13:50:45.169Z,13.63
2022-12-22T13:53:49.420Z,17.30
2022-12-22T13:56:13.763Z,18.57
2022-12-22T13:58:45.409Z,13.33
2022-12-22T14:01:20.009Z,16.37
2022-12-22T14:04:00.084Z,16.50
2022-12-22T14:06:32.195Z,17.43
2022-12-22T14:09:20.592Z,13.97
2022-12-22T14:11:53.233Z,15.67
2022-12-22T14:14:26.041Z,14.73
2022-12-22T14:16:57.043Z,14.77
2022-12-22T14:19:26.304Z,16.43
2022-12-22T14:22:03.412Z,16.67
2022-12-22T14:24:38.318Z,15.50
2022-12-22T14:27:17.238Z,14.70
2022-12-22T14:29:46.672Z,14.67
2022-12-22T14:32:35.642Z,18.33
2022-12-22T14:35:03.955Z,17.90
2022-12-22T14:37:33.161Z,14.90
2022-12-22T14:40:01.495Z,17.03
2022-12-22T14:42:32.318Z,16.30
2022-12-22T14:45:00.830Z,16.83
2022-12-22T14:47:28.872Z,16.30
2022-12-22T14:49:59.524Z,14.80
2022-12-22T14:52:37.643Z,16.47
2022-12-22T14:55:07.828Z,17.37
2022-12-22T14:57:40.667Z,15.63
2022-12-22T15:00:28.176Z,18.80
2022-12-22T15:02:58.802Z,15.43
2022-12-22T15:05:28.509Z,16.70
2022-12-22T15:08:08.562Z,15.30
2022-12-22T15:10:44.933Z,14.33
2022-12-22T15:13:20.197Z,15.30
2022-12-22T15:15:48.915Z,16.53
2022-12-22T15:18:17.132Z,16.77
2022-12-22T15:20:46.250Z,14.53
2022-12-22T15:23:17.487Z,16.00
2022-12-22T15:25:46.395Z,13.80
2022-12-22T15:28:15.929Z,15.40
2022-12-22T15:30:46.752Z,17.53
2022-12-22T15:33:17.028Z,16.57
2022-12-22T15:35:48.343Z,13.77
2022-12-22T15:38:19.129Z,15.80
2022-12-22T15:40:47.871Z,16.40
2022-12-22T15:43:55.116Z,15.07
2022-12-22T15:46:07.866Z,14.03
2022-12-22T15:48:40.643Z,16.17
2022-12-22T15:51:16.722Z,15.73
2022-12-22T15:53:45.595Z,12.67
2022-12-22T15:56:19.310Z,16.13
2022-12-22T15:58:49.216Z,19.67
2022-12-22T16:01:17.557Z,16.47
2022-12-22T16:03:45.647Z,15.93
2022-12-22T16:06:20.618Z,17.03
2022-12-22T16:08:54.836Z,19.37
2022-12-22T16:11:24.663Z,16.60
2022-12-22T16:13:54.605Z,20.17
2022-12-22T16:16:25.112Z,21.53
2022-12-22T16:18:54.161Z,19.97
2022-12-22T16:21:28.609Z,23.43
2022-12-22T16:23:57.650Z,36.10
2022-12-22T16:26:26.850Z,34.13
2022-12-22T16:28:58.308Z,28.77
2022-12-22T16:31:26.947Z,26.23
2022-12-22T16:33:55.338Z,24.77
2022-12-22T16:36:23.603Z,20.60
2022-12-22T16:38:51.819Z,20.07
2022-12-22T16:41:23.439Z,17.20
2022-12-22T16:46:40.791Z,17.57
2022-12-22T16:49:11.045Z,19.13
2022-12-22T16:51:47.391Z,19.77
2022-12-22T16:54:17.702Z,15.90
2022-12-22T16:56:47.280Z,18.80
2022-12-22T16:59:16.810Z,14.67
2022-12-22T17:01:52.083Z,18.00
2022-12-22T17:04:22.830Z,16.53
2022-12-22T17:06:53.066Z,18.73
2022-12-22T17:09:27.407Z,16.60
2022-12-22T17:11:57.083Z,15.30
2022-12-22T17:14:31.142Z,17.93
2022-12-22T17:17:03.713Z,17.97
2022-12-22T17:19:32.092Z,15.17
2022-12-22T17:22:04.394Z,14.80
2022-12-22T17:24:32.708Z,13.40
2022-12-22T17:27:06.520Z,12.43
2022-12-22T17:29:38.946Z,13.80
2022-12-22T17:32:14.405Z,13.33
2022-12-22T17:34:45.082Z,13.67
2022-12-22T17:37:27.462Z,13.77
2022-12-22T17:40:01.792Z,11.33
2022-12-22T17:42:33.663Z,11.83
2022-12-22T17:45:01.920Z,12.13
2022-12-22T17:47:42.185Z,11.60
2022-12-22T17:50:14.504Z,13.57
2022-12-22T17:52:44.140Z,12.20
2022-12-22T17:55:49.905Z,14.03
2022-12-22T17:58:14.914Z,11.83
2022-12-22T18:00:44.070Z,12.47
2022-12-22T18:03:17.423Z,10.87
2022-12-22T18:05:49.121Z,11.37
2022-12-22T18:08:22.386Z,12.40
2022-12-22T18:10:53.681Z,14.53
2022-12-22T18:13:25.218Z,13.03
2022-12-22T18:15:58.944Z,14.10
2022-12-22T18:18:28.999Z,14.57
2022-12-22T18:21:07.292Z,13.63
2022-12-22T18:23:38.250Z,16.07
2022-12-22T18:26:08.475Z,14.97
2022-12-22T18:28:37.256Z,16.37
2022-12-22T18:31:09.566Z,17.77
2022-12-22T18:33:42.658Z,13.80
2022-12-22T18:36:18.130Z,14.63
2022-12-22T18:38:48.490Z,13.73
2022-12-22T18:41:24.349Z,13.73
2022-12-22T18:43:57.689Z,13.37
2022-12-22T18:46:26.416Z,13.23
2022-12-22T18:49:01.796Z,16.80
2022-12-22T18:51:33.440Z,15.30
2022-12-22T18:54:03.768Z,14.53
2022-12-22T18:56:35.553Z,16.07
2022-12-22T18:59:03.831Z,14.03
2022-12-22T19:01:34.234Z,16.20
2022-12-22T19:04:03.917Z,16.70
2022-12-22T19:06:31.840Z,11.47
2022-12-22T19:08:59.965Z,14.40
2022-12-22T19:11:33.025Z,12.50
2022-12-22T19:14:01.175Z,17.20
2022-12-22T19:16:29.353Z,13.10
2022-12-22T19:18:59.996Z,13.30
2022-12-22T19:21:29.579Z,11.67
2022-12-22T19:23:57.726Z,11.63
2022-12-22T19:26:27.920Z,12.67
2022-12-22T19:28:59.593Z,12.33
2022-12-22T19:31:30.437Z,10.63
2022-12-22T19:34:00.409Z,16.00
2022-12-22T19:36:34.522Z,11.30
2022-12-22T19:39:07.719Z,14.87
2022-12-22T19:41:44.080Z,17.40
2022-12-22T19:44:25.047Z,12.33
2022-12-22T19:46:54.861Z,15.83
2022-12-22T19:49:30.569Z,10.90
2022-12-22T19:52:04.701Z,12.17
2022-12-22T19:54:36.078Z,14.27
2022-12-22T19:57:07.524Z,15.07
2022-12-22T19:59:40.015Z,16.67
2022-12-22T20:02:25.541Z,14.50
2022-12-22T20:04:54.859Z,16.77
2022-12-22T20:07:26.596Z,19.07
2022-12-22T20:09:54.661Z,13.00
2022-12-22T20:12:27.433Z,18.30
2022-12-22T20:14:55.740Z,22.50
2022-12-22T20:17:23.927Z,14.53
2022-12-22T20:19:52.251Z,18.07
2022-12-22T20:22:22.682Z,22.20
2022-12-22T20:24:54.458Z,18.53
2022-12-22T20:27:25.616Z,15.27
2022-12-22T20:29:54.392Z,20.23
2022-12-22T20:32:27.609Z,21.47
2022-12-22T20:34:56.487Z,21.93
2022-12-22T20:37:25.294Z,19.10
2022-12-22T20:39:54.797Z,26.17
2022-12-22T20:42:24.885Z,20.87
2022-12-22T20:45:02.190Z,22.97
2022-12-22T20:47:33.334Z,13.87
2022-12-22T20:50:01.415Z,15.63
2022-12-22T20:52:30.100Z,23.80
2022-12-22T20:54:59.648Z,24.23
2022-12-22T20:57:28.628Z,22.83
2022-12-22T20:59:57.110Z,23.97
2022-12-22T21:02:28.691Z,26.90
2022-12-22T21:05:00.531Z,21.53
2022-12-22T21:07:29.568Z,26.47
2022-12-22T21:09:57.645Z,24.27
2022-12-22T21:12:27.047Z,24.13
2022-12-22T21:14:55.126Z,23.23
2022-12-22T21:17:23.363Z,33.67
2022-12-22T21:19:51.373Z,27.80
2022-12-22T21:22:19.441Z,27.90
2022-12-22T21:24:47.500Z,31.37
2022-12-22T21:27:20.092Z,28.33
2022-12-22T21:29:49.607Z,33.07
2022-12-22T21:32:17.763Z,31.00
2022-12-22T21:34:45.802Z,27.47
2022-12-22T21:37:18.330Z,27.53
2022-12-22T21:39:46.874Z,32.77
2022-12-22T21:42:16.378Z,23.50
2022-12-22T21:44:45.793Z,26.60
2022-12-22T21:47:18.255Z,28.53
2022-12-22T21:49:46.184Z,26.87
2022-12-22T21:52:14.344Z,23.30
2022-12-22T21:54:42.211Z,23.87
2022-12-22T21:57:15.020Z,21.60
2022-12-22T21:59:42.957Z,20.03
2022-12-22T22:02:17.100Z,22.70
2022-12-22T22:04:53.786Z,21.43
2022-12-22T22:07:22.806Z,21.87
2022-12-22T22:09:50.778Z,25.60
2022-12-22T22:12:33.705Z,27.13
2022-12-22T22:15:02.054Z,17.33
2022-12-22T22:17:31.721Z,21.03
2022-12-22T22:19:59.775Z,21.73
2022-12-22T22:22:27.772Z,23.90
2022-12-22T22:24:55.755Z,22.80
2022-12-22T22:27:23.731Z,20.43
2022-12-22T22:29:51.781Z,27.97
2022-12-22T22:32:20.669Z,21.00
2022-12-22T22:34:53.643Z,18.70
2022-12-22T22:37:22.170Z,28.87
2022-12-22T22:39:50.818Z,17.33
2022-12-22T22:42:18.754Z,26.03
2022-12-22T22:44:46.803Z,22.27
2022-12-22T22:50:19.049Z,17.43
2022-12-22T22:52:47.307Z,21.37
2022-12-22T22:55:15.796Z,19.43
2022-12-22T22:57:44.056Z,19.63
2022-12-22T23:00:14.306Z,15.97
2022-12-22T23:02:42.872Z,18.17
2022-12-22T23:05:16.962Z,24.93
2022-12-22T23:07:50.056Z,21.77
2022-12-22T23:10:18.116Z,18.50
2022-12-22T23:12:46.227Z,17.93
2022-12-22T23:15:14.249Z,19.50
2022-12-22T23:17:42.167Z,21.00
2022-12-22T23:20:10.719Z,17.73
2022-12-22T23:22:38.814Z,19.73
2022-12-22T23:25:08.877Z,22.67
2022-12-22T23:27:36.947Z,16.87
2022-12-22T23:30:05.462Z,18.87
2022-12-22T23:32:33.402Z,15.77
2022-12-22T23:35:01.232Z,14.40
2022-12-22T23:37:29.063Z,19.57
2022-12-22T23:40:10.780Z,16.47
2022-12-22T23:42:50.474Z,18.93
2022-12-22T23:45:21.244Z,10.73
2022-12-22T23:47:49.243Z,12.73
2022-12-22T23:50:17.548Z,13.17
2022-12-22T23:52:49.210Z,13.30
2022-12-22T23:55:17.743Z,13.93
2022-12-22T23:57:47.257Z,17.83
